Ek-star — LAMT5 — position and weather

sailwx.info

Track history (hours):
 
Tides and Currents Weather Stations Pressure Air Temp Water Temp Dewpoint Dewpoint Depression Visibility Wind Speed Wind Dir Waves Ship Positions

Ek-star

Last reported at 2018-May-25 15:47 UTC. Time now 2018-May-26 19:27 UTC.
Position N 51°55' E 004°13'.

Length 135 m; draft 8.2 m.

Type: Ship (hazmat cat A). MMSI: 257433000.

Date/timePositionNaut miles runAvg speedWind from/ knotsBaromVisibWave heightAir tempDewpointWater temp
2018-May-25 15:47N 51°55' E 004°13'0 0.0
2018-May-25 15:29N 51°55' E 004°13'0 0.0
2018-May-25 14:59N 51°55' E 004°13'0 0.0
2018-May-25 14:30N 51°55' E 004°13'0 0.4
2018-May-25 13:52N 51°55' E 004°13'2 4.8
2018-May-25 13:29N 51°57' E 004°10'4 7.4
2018-May-25 13:00N 51°58' E 004°06'4 8.8
2018-May-25 12:30N 52°00' E 003°59'611.3
2018-May-25 11:59N 52°00' E 003°50'713.6
2018-May-25 11:30N 51°58' E 003°40'713.3
2018-May-25 11:00N 51°55' E 003°30'2 1.2
2018-May-25 09:14N 51°54' E 003°27'0 0.1
2018-May-25 08:08N 51°54' E 003°27'0 0.0
2018-May-25 06:32N 51°54' E 003°27'0 0.0
2018-May-25 06:20N 51°54' E 003°27'0 0.0
2018-May-25 04:23N 51°54' E 003°27'0 0.0
2018-May-25 03:41N 51°54' E 003°27'0 0.0
2018-May-24 19:53N 51°54' E 003°27'0 0.0
2018-May-24 08:17N 51°54' E 003°27'0 0.1
2018-May-24 05:41N 51°54' E 003°27'0 0.0
2018-May-24 05:14N 51°54' E 003°27'0 0.0
2018-May-24 04:56N 51°54' E 003°27'0 0.3
2018-May-24 04:30N 51°54' E 003°27'1 2.6
2018-May-24 04:00N 51°54' E 003°25'1110.0
2018-May-24 02:54N 51°52' E 003°08'410.4
2018-May-24 02:29N 51°50' E 003°01'1410.8
2018-May-24 01:13N 51°46' E 002°40'311.3
2018-May-24 00:55N 51°44' E 002°36'511.4
2018-May-24 00:30N 51°40' E 002°30'611.7
2018-May-24 00:00N 51°36' E 002°24'611.9
2018-May-23 23:30N 51°32' E 002°18'612.2
2018-May-23 22:59N 51°26' E 002°13'712.5
2018-May-23 22:25N 51°20' E 002°08'512.8
2018-May-23 22:00N 51°15' E 002°05'712.9
2018-May-23 21:30N 51°11' E 001°57'713.1
2018-May-23 21:00N 51°08' E 001°48'713.3
2018-May-23 20:30N 51°03' E 001°41'2212.8
2018-May-23 18:49N 50°45' E 001°22'4611.8
2018-May-23 14:55N 50°23' E 000°18'2512.4
2018-May-23 12:53N 50°22' W 000°21'411.8
2018-May-23 12:30N 50°25' W 000°25'611.2
2018-May-23 12:00N 50°30' W 000°30'611.5
2018-May-23 11:30N 50°32' W 000°38'611.3
2018-May-23 11:00N 50°34' W 000°47'611.1
2018-May-23 10:30N 50°36' W 000°55'611.1
2018-May-23 10:01N 50°38' W 001°03'1 2.0
2018-May-23 09:30N 50°38' W 001°05'0 0.0
2018-May-23 09:00N 50°38' W 001°05'0 0.0
2018-May-23 08:30N 50°38' W 001°05'0 0.0
2018-May-23 07:57N 50°38' W 001°05'0 0.0
2018-May-23 07:30N 50°38' W 001°05'0 0.0
2018-May-23 07:00N 50°38' W 001°05'0 0.0
2018-May-23 06:30N 50°38' W 001°05'0 0.1
2018-May-23 05:57N 50°38' W 001°05'0 0.1
2018-May-23 05:30N 50°38' W 001°05'0 0.1
2018-May-23 05:00N 50°38' W 001°05'0 0.3
2018-May-23 04:27N 50°38' W 001°04'0 0.1
2018-May-23 03:27N 50°38' W 001°04'0 0.0
2018-May-23 02:57N 50°38' W 001°04'0 0.0
2018-May-23 01:42N 50°38' W 001°04'0 0.0
2018-May-23 01:30N 50°38' W 001°04'0 0.1
2018-May-22 23:42N 50°38' W 001°04'0 0.3
2018-May-22 23:30N 50°38' W 001°04'0 0.2
2018-May-22 23:00N 50°38' W 001°05'0 0.1
2018-May-22 22:24N 50°38' W 001°05'0 0.1
2018-May-22 22:00N 50°38' W 001°05'0 0.0
2018-May-22 21:30N 50°38' W 001°05'0 0.0
2018-May-22 21:00N 50°38' W 001°05'0 0.0
2018-May-22 20:30N 50°38' W 001°05'0 0.0
2018-May-22 20:00N 50°38' W 001°05'0 0.0
2018-May-22 19:30N 50°38' W 001°05'0 0.0
2018-May-22 19:00N 50°38' W 001°05'0 0.0
2018-May-22 18:30N 50°38' W 001°05'0 0.0
2018-May-22 18:00N 50°38' W 001°05'0 0.0
2018-May-22 17:24N 50°38' W 001°05'0 0.1
2018-May-22 16:51N 50°38' W 001°05'0 0.3
2018-May-22 16:29N 50°38' W 001°05'0 0.1
2018-May-22 15:59N 50°38' W 001°04'0 0.0
2018-May-22 15:26N 50°38' W 001°04'0 0.0
2018-May-22 14:56N 50°38' W 001°04'0 0.0
2018-May-22 14:26N 50°38' W 001°04'0 0.1
2018-May-22 13:58N 50°38' W 001°05'0 0.0
2018-May-22 10:49N 50°38' W 001°05'0 0.3
2018-May-22 10:25N 50°38' W 001°05'0 0.2
2018-May-22 09:55N 50°38' W 001°05'0 0.0
2018-May-22 09:28N 50°38' W 001°05'0 0.0
2018-May-22 08:58N 50°38' W 001°05'0 0.0
2018-May-22 08:28N 50°38' W 001°05'0 0.0
2018-May-22 07:58N 50°38' W 001°05'0 0.0
2018-May-22 07:28N 50°38' W 001°05'0 0.0
2018-May-22 06:58N 50°38' W 001°05'0 0.0
2018-May-22 06:28N 50°38' W 001°05'0 0.0
2018-May-22 05:58N 50°38' W 001°05'0 0.0
2018-May-22 05:28N 50°38' W 001°05'0 0.0
2018-May-22 04:58N 50°38' W 001°05'0 0.0
2018-May-22 04:25N 50°38' W 001°05'0 0.2
2018-May-22 03:49N 50°38' W 001°05'0 0.2
2018-May-22 03:28N 50°38' W 001°04'0 0.1
2018-May-22 02:34N 50°38' W 001°04'0 0.0
2018-May-22 02:22N 50°38' W 001°04'0 0.0
2018-May-21 22:13N 50°38' W 001°04'0 0.1
2018-May-21 21:49N 50°38' W 001°04'0 0.3
2018-May-21 21:28N 50°38' W 001°05'0 0.1
2018-May-21 20:58N 50°38' W 001°05'0 0.0
2018-May-21 20:28N 50°38' W 001°05'0 0.0
2018-May-21 19:58N 50°38' W 001°05'0 0.0
2018-May-21 19:28N 50°38' W 001°05'0 0.0
2018-May-21 18:58N 50°38' W 001°05'0 0.0
2018-May-21 18:28N 50°38' W 001°05'0 0.0
2018-May-21 17:58N 50°38' W 001°05'0 0.0
2018-May-21 17:28N 50°38' W 001°05'0 0.0
2018-May-21 16:58N 50°38' W 001°05'0 0.2
2018-May-21 16:28N 50°38' W 001°05'0 0.1
2018-May-21 15:58N 50°38' W 001°05'0 0.1
2018-May-21 15:28N 50°38' W 001°05'0 0.2
2018-May-21 14:49N 50°38' W 001°04'0 0.0
2018-May-21 14:25N 50°38' W 001°04'0 0.0
2018-May-21 13:49N 50°38' W 001°04'0 0.0
2018-May-21 13:25N 50°38' W 001°04'0 0.0
2018-May-21 12:55N 50°38' W 001°04'0 0.0
2018-May-21 12:25N 50°38' W 001°04'0 0.0
2018-May-21 11:52N 50°38' W 001°04'0 0.0
2018-May-21 11:19N 50°38' W 001°04'0 0.0
2018-May-21 10:55N 50°38' W 001°04'0 0.0
2018-May-21 10:01N 50°38' W 001°04'0 0.3
2018-May-21 09:49N 50°38' W 001°04'0 0.4
2018-May-21 09:28N 50°38' W 001°05'0 0.0
2018-May-21 08:58N 50°38' W 001°05'0 0.0
2018-May-21 08:28N 50°38' W 001°05'0 0.0
2018-May-21 07:52N 50°38' W 001°05'0 0.0
2018-May-21 07:25N 50°38' W 001°05'0 0.1
2018-May-21 06:55N 50°38' W 001°05'0 0.0
2018-May-21 06:28N 50°38' W 001°05'0 0.1
2018-May-21 05:55N 50°38' W 001°05'0 0.0
2018-May-21 05:28N 50°38' W 001°05'0 0.1
2018-May-21 04:58N 50°38' W 001°05'0 0.0
2018-May-21 04:25N 50°38' W 001°05'0 0.0
2018-May-21 03:58N 50°38' W 001°05'0 0.0
2018-May-21 03:28N 50°38' W 001°05'0 0.0
2018-May-21 02:58N 50°38' W 001°05'0 0.3
2018-May-21 02:19N 50°38' W 001°04'0 0.0
2018-May-21 01:55N 50°38' W 001°04'0 0.0
2018-May-21 01:28N 50°38' W 001°04'0 0.0
2018-May-21 00:58N 50°38' W 001°04'0 0.0
2018-May-21 00:28N 50°38' W 001°04'0 0.0
2018-May-20 23:58N 50°38' W 001°04'0 0.0
2018-May-20 23:04N 50°38' W 001°04'0 0.1
2018-May-20 22:58N 50°38' W 001°04'0 0.1
2018-May-20 22:28N 50°38' W 001°04'0 0.0
2018-May-20 21:52N 50°38' W 001°04'0 0.0
2018-May-20 21:28N 50°38' W 001°04'0 0.2
2018-May-20 20:55N 50°38' W 001°05'0 0.2
2018-May-20 20:28N 50°38' W 001°05'0 0.1
2018-May-20 19:58N 50°38' W 001°05'0 0.0
2018-May-20 19:28N 50°38' W 001°05'0 0.0
2018-May-20 18:58N 50°38' W 001°05'0 0.0
2018-May-20 18:28N 50°38' W 001°05'0 0.0
2018-May-20 17:55N 50°38' W 001°05'0 0.0
2018-May-20 17:28N 50°38' W 001°05'0 0.0
2018-May-20 16:55N 50°38' W 001°05'0 0.0
2018-May-20 16:28N 50°38' W 001°05'0 0.0
2018-May-20 15:58N 50°38' W 001°05'0 0.0
2018-May-20 15:28N 50°38' W 001°05'0 0.0
2018-May-20 14:58N 50°38' W 001°05'0 0.1
2018-May-20 14:28N 50°38' W 001°05'0 0.2
2018-May-20 13:58N 50°38' W 001°04'0 0.1
2018-May-20 13:28N 50°38' W 001°04'0 0.0
2018-May-20 12:43N 50°38' W 001°04'0 0.0
2018-May-20 12:28N 50°38' W 001°04'0 0.0
2018-May-20 10:40N 50°38' W 001°04'0 0.0
2018-May-20 10:25N 50°38' W 001°04'0 0.0
2018-May-20 09:25N 50°38' W 001°04'0 0.0
2018-May-20 08:55N 50°38' W 001°04'0 0.2
2018-May-20 08:25N 50°38' W 001°05'0 0.2
2018-May-20 07:58N 50°38' W 001°05'0 0.1
2018-May-20 07:28N 50°38' W 001°05'0 0.0
2018-May-20 06:58N 50°38' W 001°05'0 0.0
2018-May-20 06:28N 50°38' W 001°05'0 0.0
2018-May-20 05:58N 50°38' W 001°05'0 0.0
2018-May-20 05:28N 50°38' W 001°05'0 0.0
2018-May-20 04:58N 50°38' W 001°05'0 0.0
2018-May-20 04:28N 50°38' W 001°05'0 0.0
2018-May-20 03:55N 50°38' W 001°05'0 0.0
2018-May-20 03:25N 50°38' W 001°05'0 0.0
2018-May-20 02:55N 50°38' W 001°05'0 0.1
2018-May-20 02:28N 50°38' W 001°05'0 0.1
2018-May-20 01:58N 50°38' W 001°05'0 0.3
2018-May-20 01:25N 50°38' W 001°04'0 0.1
2018-May-20 00:49N 50°38' W 001°04'0 0.0
2018-May-20 00:25N 50°38' W 001°04'0 0.0
2018-May-19 23:55N 50°38' W 001°04'0 0.0
2018-May-19 23:19N 50°38' W 001°04'0 0.1
2018-May-19 22:46N 50°38' W 001°04'0 0.1
2018-May-19 22:16N 50°38' W 001°04'0 0.0
2018-May-19 21:43N 50°38' W 001°04'0 0.0
2018-May-19 21:25N 50°38' W 001°04'0 0.0
2018-May-19 20:58N 50°38' W 001°04'0 0.0
2018-May-19 20:25N 50°38' W 001°04'0 0.0
2018-May-19 19:58N 50°38' W 001°04'0 0.3
2018-May-19 19:28N 50°38' W 001°05'0 0.1
2018-May-19 18:58N 50°38' W 001°05'0 0.0
2018-May-19 18:28N 50°38' W 001°05'0 0.0
2018-May-19 17:55N 50°38' W 001°05'0 0.0
2018-May-19 17:28N 50°38' W 001°05'0 0.0
2018-May-19 16:58N 50°38' W 001°05'0 0.0
2018-May-19 16:28N 50°38' W 001°05'0 0.0
2018-May-19 15:58N 50°38' W 001°05'0 0.0
2018-May-19 15:28N 50°38' W 001°05'0 0.0
2018-May-19 14:58N 50°38' W 001°05'0 0.0
2018-May-19 14:30N 50°38' W 001°05'0 0.1
2018-May-19 14:00N 50°38' W 001°05'0 0.3
2018-May-19 13:27N 50°38' W 001°04'0 0.2
2018-May-19 13:01N 50°38' W 001°04'0 0.0
2018-May-19 12:30N 50°38' W 001°04'0 0.0
2018-May-19 11:58N 50°38' W 001°04'0 0.0
2018-May-19 11:30N 50°38' W 001°04'0 0.0
2018-May-19 11:00N 50°38' W 001°04'0 0.0
2018-May-19 10:27N 50°38' W 001°04'0 0.0
2018-May-19 09:57N 50°38' W 001°04'0 0.1
2018-May-19 09:00N 50°38' W 001°04'0 0.1
2018-May-19 08:21N 50°38' W 001°04'0 0.0
2018-May-19 08:00N 50°38' W 001°04'0 0.2
2018-May-19 07:30N 50°38' W 001°05'0 0.2
2018-May-19 07:00N 50°38' W 001°05'0 0.0
2018-May-19 06:30N 50°38' W 001°05'0 0.0
2018-May-19 06:00N 50°38' W 001°05'0 0.0
2018-May-19 05:30N 50°38' W 001°05'0 0.0
2018-May-19 05:00N 50°38' W 001°05'0 0.0
2018-May-19 04:30N 50°38' W 001°05'0 0.2
2018-May-19 04:00N 50°38' W 001°05'0 0.0
2018-May-19 03:30N 50°38' W 001°05'0 0.0
2018-May-19 03:00N 50°38' W 001°05'0 0.0
2018-May-19 02:30N 50°38' W 001°05'0 0.0
2018-May-19 02:00N 50°38' W 001°05'0 0.1
2018-May-19 01:30N 50°38' W 001°05'0 0.3
2018-May-19 01:00N 50°38' W 001°05'0 0.2
2018-May-19 00:30N 50°38' W 001°04'0 0.0
2018-May-19 00:00N 50°38' W 001°04'0 0.0
2018-May-18 23:24N 50°38' W 001°04'0 0.0
2018-May-18 23:00N 50°38' W 001°04'0 0.0
2018-May-18 22:15N 50°38' W 001°04'0 0.0
2018-May-18 21:54N 50°38' W 001°04'0 0.0
2018-May-18 21:30N 50°38' W 001°04'0 0.0
2018-May-18 20:36N 50°38' W 001°04'0 0.1
2018-May-18 20:12N 50°38' W 001°04'0 0.0
2018-May-18 19:30N 50°38' W 001°04'0 0.1
2018-May-18 19:00N 50°38' W 001°04'0 0.3
2018-May-18 18:30N 50°38' W 001°05'0 0.0
2018-May-18 17:51N 50°38' W 001°05'0 0.0
2018-May-18 17:30N 50°38' W 001°05'0 0.0
2018-May-18 17:00N 50°38' W 001°05'0 0.0
2018-May-18 16:30N 50°38' W 001°05'0 0.0
2018-May-18 16:00N 50°38' W 001°05'0 0.0
2018-May-18 15:30N 50°38' W 001°05'0 0.0
2018-May-18 15:00N 50°38' W 001°05'0 0.0
2018-May-18 14:30N 50°38' W 001°05'0 0.0
2018-May-18 13:57N 50°38' W 001°05'0 0.0
2018-May-18 13:27N 50°38' W 001°05'0 0.2
2018-May-18 13:00N 50°38' W 001°05'0 0.2
2018-May-18 12:30N 50°38' W 001°05'0 0.2
2018-May-18 11:54N 50°38' W 001°04'0 0.0
2018-May-18 11:18N 50°38' W 001°04'0 0.0
2018-May-18 10:54N 50°38' W 001°04'0 0.0
2018-May-18 10:24N 50°38' W 001°04'0 0.0
2018-May-18 09:51N 50°38' W 001°04'0 0.0
2018-May-18 08:45N 50°38' W 001°04'0 0.1
2018-May-18 08:00N 50°38' W 001°04'0 0.1
2018-May-18 07:00N 50°38' W 001°04'0 0.3
2018-May-18 06:30N 50°38' W 001°05'0 0.1
2018-May-18 05:57N 50°38' W 001°05'0 0.0
2018-May-18 05:30N 50°38' W 001°05'0 0.0
2018-May-18 05:00N 50°38' W 001°05'0 0.0
2018-May-18 04:30N 50°38' W 001°05'0 0.0
2018-May-18 04:00N 50°38' W 001°05'0 0.0
2018-May-18 03:28N 50°38' W 001°05'0 0.0
2018-May-18 02:58N 50°38' W 001°05'0 0.0
2018-May-18 02:25N 50°38' W 001°05'0 0.0
2018-May-18 01:46N 50°38' W 001°05'0 0.0
2018-May-18 01:28N 50°38' W 001°05'0 0.0
2018-May-18 00:49N 50°38' W 001°05'0 0.1
2018-May-18 00:28N 50°38' W 001°05'0 0.2
2018-May-17 23:58N 50°38' W 001°04'0 0.1
2018-May-17 23:25N 50°38' W 001°04'0 0.0
2018-May-17 22:49N 50°38' W 001°04'0 0.0
2018-May-17 22:30N 50°38' W 001°04'0 0.0
2018-May-17 21:54N 50°38' W 001°04'0 0.0
2018-May-17 19:24N 50°38' W 001°04'0 0.0
2018-May-17 18:54N 50°38' W 001°04'0 0.1
2018-May-17 18:30N 50°38' W 001°04'0 0.2
2018-May-17 18:00N 50°38' W 001°05'0 0.1
2018-May-17 17:30N 50°38' W 001°05'0 0.0
2018-May-17 17:00N 50°38' W 001°05'0 0.0
2018-May-17 16:30N 50°38' W 001°05'0 0.0
2018-May-17 16:00N 50°38' W 001°05'0 0.0
2018-May-17 15:30N 50°38' W 001°05'0 0.0
2018-May-17 15:00N 50°38' W 001°05'0 0.0
2018-May-17 14:30N 50°38' W 001°05'0 0.0
2018-May-17 14:00N 50°38' W 001°05'0 0.0
2018-May-17 13:18N 50°38' W 001°05'0 0.0
2018-May-17 12:57N 50°38' W 001°05'0 0.2
2018-May-17 12:30N 50°38' W 001°05'0 0.1
2018-May-17 12:00N 50°38' W 001°05'0 0.2
2018-May-17 11:24N 50°38' W 001°04'0 0.1
2018-May-17 11:00N 50°38' W 001°04'0 0.0
2018-May-17 10:30N 50°38' W 001°04'0 0.0
2018-May-17 09:48N 50°38' W 001°04'0 0.1
2018-May-17 09:30N 50°38' W 001°04'0 0.2
2018-May-17 08:54N 50°38' W 001°04'0 0.1
2018-May-17 07:18N 50°38' W 001°04'0 0.0
2018-May-17 07:00N 50°38' W 001°04'0 0.4
2018-May-17 06:30N 50°38' W 001°05'0 0.3
2018-May-17 05:57N 50°38' W 001°05'0 0.0
2018-May-17 05:30N 50°38' W 001°05'0 0.0
2018-May-17 05:00N 50°38' W 001°05'0 0.0
2018-May-17 04:29N 50°38' W 001°05'0 0.0
2018-May-17 03:59N 50°38' W 001°05'0 0.0
2018-May-17 03:29N 50°38' W 001°05'0 0.0
2018-May-17 02:56N 50°38' W 001°05'0 0.1
2018-May-17 02:29N 50°38' W 001°05'0 0.0
2018-May-17 01:57N 50°38' W 001°05'0 0.0
2018-May-17 01:27N 50°38' W 001°05'0 0.0
2018-May-17 00:48N 50°38' W 001°05'0 0.0
2018-May-17 00:27N 50°38' W 001°05'0 0.0
2018-May-17 00:00N 50°38' W 001°05'0 0.0
2018-May-16 23:30N 50°38' W 001°05'0 0.2
2018-May-16 22:18N 50°38' W 001°05'0 0.0
2018-May-16 21:51N 50°38' W 001°05'0 0.0
2018-May-16 21:27N 50°38' W 001°05'0 0.0
2018-May-16 19:24N 50°38' W 001°04'0 0.1
2018-May-16 18:06N 50°38' W 001°05'0 0.5
2018-May-16 17:57N 50°38' W 001°05'0 0.1
2018-May-16 17:21N 50°38' W 001°05'0 0.0
2018-May-16 16:57N 50°38' W 001°05'0 0.0
2018-May-16 16:30N 50°38' W 001°05'0 0.0
2018-May-16 16:00N 50°38' W 001°05'0 0.0
2018-May-16 15:30N 50°38' W 001°05'0 0.0
2018-May-16 15:00N 50°38' W 001°05'0 0.0
2018-May-16 14:27N 50°38' W 001°05'0 0.0
2018-May-16 14:00N 50°38' W 001°05'0 0.0
2018-May-16 13:30N 50°38' W 001°05'0 0.1
2018-May-16 13:00N 50°38' W 001°05'0 0.0
2018-May-16 12:27N 50°38' W 001°05'0 0.0
2018-May-16 12:00N 50°38' W 001°05'0 0.0
2018-May-16 11:30N 50°38' W 001°05'0 0.1
2018-May-16 11:00N 50°38' W 001°05'0 0.1
2018-May-16 08:09N 50°38' W 001°04'0 0.0
2018-May-16 05:51N 50°38' W 001°04'0 0.4
2018-May-16 05:27N 50°38' W 001°05'0 0.3
2018-May-16 05:00N 50°38' W 001°05'0 0.1
2018-May-16 04:27N 50°38' W 001°05'0 0.0
2018-May-16 04:00N 50°38' W 001°05'0 0.0
2018-May-16 03:30N 50°38' W 001°05'0 0.0
2018-May-16 03:00N 50°38' W 001°05'0 0.0
2018-May-16 02:30N 50°38' W 001°05'0 0.0
2018-May-16 02:00N 50°38' W 001°05'0 0.0
2018-May-16 01:30N 50°38' W 001°05'0 0.0
2018-May-16 01:00N 50°38' W 001°05'0 0.0
2018-May-16 00:27N 50°38' W 001°05'0 0.1
2018-May-16 00:00N 50°38' W 001°05'0 0.1
2018-May-15 23:30N 50°38' W 001°05'0 0.0
2018-May-15 23:00N 50°38' W 001°05'0 0.3
2018-May-15 22:30N 50°38' W 001°04'0 0.1
2018-May-15 22:00N 50°38' W 001°04'0 0.1
2018-May-15 21:30N 50°38' W 001°04'0 0.0
2018-May-15 17:36N 50°38' W 001°04'0 0.3
2018-May-15 17:12N 50°38' W 001°04'0 0.6
2018-May-15 16:57N 50°38' W 001°05'0 0.1
2018-May-15 16:30N 50°38' W 001°05'0 0.0
2018-May-15 16:00N 50°38' W 001°05'  
Track history (hours):
 
Tides and Currents Weather Stations Pressure Air Temp Water Temp Dewpoint Dewpoint Depression Visibility Wind Speed Wind Dir Waves Ship Positions

Ek-star

Last reported at 2018-May-25 15:47 UTC. Time now 2018-May-26 19:27 UTC.
Position N 51°55' E 004°13'.

Length 135 m; draft 8.2 m.

Type: Ship (hazmat cat A). MMSI: 257433000.

Date/timePositionNaut miles runAvg speedWind from/ knotsBaromVisibWave heightAir tempDewpointWater temp
2018-May-25 15:47N 51°55' E 004°13'0 0.0
2018-May-25 15:29N 51°55' E 004°13'0 0.0
2018-May-25 14:59N 51°55' E 004°13'0 0.0
2018-May-25 14:30N 51°55' E 004°13'0 0.4
2018-May-25 13:52N 51°55' E 004°13'2 4.8
2018-May-25 13:29N 51°57' E 004°10'4 7.4
2018-May-25 13:00N 51°58' E 004°06'4 8.8
2018-May-25 12:30N 52°00' E 003°59'611.3
2018-May-25 11:59N 52°00' E 003°50'713.6
2018-May-25 11:30N 51°58' E 003°40'713.3
2018-May-25 11:00N 51°55' E 003°30'2 1.2
2018-May-25 09:14N 51°54' E 003°27'0 0.1
2018-May-25 08:08N 51°54' E 003°27'0 0.0
2018-May-25 06:32N 51°54' E 003°27'0 0.0
2018-May-25 06:20N 51°54' E 003°27'0 0.0
2018-May-25 04:23N 51°54' E 003°27'0 0.0
2018-May-25 03:41N 51°54' E 003°27'0 0.0
2018-May-24 19:53N 51°54' E 003°27'0 0.0
2018-May-24 08:17N 51°54' E 003°27'0 0.1
2018-May-24 05:41N 51°54' E 003°27'0 0.0
2018-May-24 05:14N 51°54' E 003°27'0 0.0
2018-May-24 04:56N 51°54' E 003°27'0 0.3
2018-May-24 04:30N 51°54' E 003°27'1 2.6
2018-May-24 04:00N 51°54' E 003°25'1110.0
2018-May-24 02:54N 51°52' E 003°08'410.4
2018-May-24 02:29N 51°50' E 003°01'1410.8
2018-May-24 01:13N 51°46' E 002°40'311.3
2018-May-24 00:55N 51°44' E 002°36'511.4
2018-May-24 00:30N 51°40' E 002°30'611.7
2018-May-24 00:00N 51°36' E 002°24'611.9
2018-May-23 23:30N 51°32' E 002°18'612.2
2018-May-23 22:59N 51°26' E 002°13'712.5
2018-May-23 22:25N 51°20' E 002°08'512.8
2018-May-23 22:00N 51°15' E 002°05'712.9
2018-May-23 21:30N 51°11' E 001°57'713.1
2018-May-23 21:00N 51°08' E 001°48'713.3
2018-May-23 20:30N 51°03' E 001°41'2212.8
2018-May-23 18:49N 50°45' E 001°22'4611.8
2018-May-23 14:55N 50°23' E 000°18'2512.4
2018-May-23 12:53N 50°22' W 000°21'411.8
2018-May-23 12:30N 50°25' W 000°25'611.2
2018-May-23 12:00N 50°30' W 000°30'611.5
2018-May-23 11:30N 50°32' W 000°38'611.3
2018-May-23 11:00N 50°34' W 000°47'611.1
2018-May-23 10:30N 50°36' W 000°55'611.1
2018-May-23 10:01N 50°38' W 001°03'1 2.0
2018-May-23 09:30N 50°38' W 001°05'0 0.0
2018-May-23 09:00N 50°38' W 001°05'0 0.0
2018-May-23 08:30N 50°38' W 001°05'0 0.0
2018-May-23 07:57N 50°38' W 001°05'0 0.0
2018-May-23 07:30N 50°38' W 001°05'0 0.0
2018-May-23 07:00N 50°38' W 001°05'0 0.0
2018-May-23 06:30N 50°38' W 001°05'0 0.1
2018-May-23 05:57N 50°38' W 001°05'0 0.1
2018-May-23 05:30N 50°38' W 001°05'0 0.1
2018-May-23 05:00N 50°38' W 001°05'0 0.3
2018-May-23 04:27N 50°38' W 001°04'0 0.1
2018-May-23 03:27N 50°38' W 001°04'0 0.0
2018-May-23 02:57N 50°38' W 001°04'0 0.0
2018-May-23 01:42N 50°38' W 001°04'0 0.0
2018-May-23 01:30N 50°38' W 001°04'0 0.1
2018-May-22 23:42N 50°38' W 001°04'0 0.3
2018-May-22 23:30N 50°38' W 001°04'0 0.2
2018-May-22 23:00N 50°38' W 001°05'0 0.1
2018-May-22 22:24N 50°38' W 001°05'0 0.1
2018-May-22 22:00N 50°38' W 001°05'0 0.0
2018-May-22 21:30N 50°38' W 001°05'0 0.0
2018-May-22 21:00N 50°38' W 001°05'0 0.0
2018-May-22 20:30N 50°38' W 001°05'0 0.0
2018-May-22 20:00N 50°38' W 001°05'0 0.0
2018-May-22 19:30N 50°38' W 001°05'0 0.0
2018-May-22 19:00N 50°38' W 001°05'0 0.0
2018-May-22 18:30N 50°38' W 001°05'0 0.0
2018-May-22 18:00N 50°38' W 001°05'0 0.0
2018-May-22 17:24N 50°38' W 001°05'0 0.1
2018-May-22 16:51N 50°38' W 001°05'0 0.3
2018-May-22 16:29N 50°38' W 001°05'0 0.1
2018-May-22 15:59N 50°38' W 001°04'0 0.0
2018-May-22 15:26N 50°38' W 001°04'0 0.0
2018-May-22 14:56N 50°38' W 001°04'0 0.0
2018-May-22 14:26N 50°38' W 001°04'0 0.1
2018-May-22 13:58N 50°38' W 001°05'0 0.0
2018-May-22 10:49N 50°38' W 001°05'0 0.3
2018-May-22 10:25N 50°38' W 001°05'0 0.2
2018-May-22 09:55N 50°38' W 001°05'0 0.0
2018-May-22 09:28N 50°38' W 001°05'0 0.0
2018-May-22 08:58N 50°38' W 001°05'0 0.0
2018-May-22 08:28N 50°38' W 001°05'0 0.0
2018-May-22 07:58N 50°38' W 001°05'0 0.0
2018-May-22 07:28N 50°38' W 001°05'0 0.0
2018-May-22 06:58N 50°38' W 001°05'0 0.0
2018-May-22 06:28N 50°38' W 001°05'0 0.0
2018-May-22 05:58N 50°38' W 001°05'0 0.0
2018-May-22 05:28N 50°38' W 001°05'0 0.0
2018-May-22 04:58N 50°38' W 001°05'0 0.0
2018-May-22 04:25N 50°38' W 001°05'0 0.2
2018-May-22 03:49N 50°38' W 001°05'0 0.2
2018-May-22 03:28N 50°38' W 001°04'0 0.1
2018-May-22 02:34N 50°38' W 001°04'0 0.0
2018-May-22 02:22N 50°38' W 001°04'0 0.0
2018-May-21 22:13N 50°38' W 001°04'0 0.1
2018-May-21 21:49N 50°38' W 001°04'0 0.3
2018-May-21 21:28N 50°38' W 001°05'0 0.1
2018-May-21 20:58N 50°38' W 001°05'0 0.0
2018-May-21 20:28N 50°38' W 001°05'0 0.0
2018-May-21 19:58N 50°38' W 001°05'0 0.0
2018-May-21 19:28N 50°38' W 001°05'0 0.0
2018-May-21 18:58N 50°38' W 001°05'0 0.0
2018-May-21 18:28N 50°38' W 001°05'0 0.0
2018-May-21 17:58N 50°38' W 001°05'0 0.0
2018-May-21 17:28N 50°38' W 001°05'0 0.0
2018-May-21 16:58N 50°38' W 001°05'0 0.2
2018-May-21 16:28N 50°38' W 001°05'0 0.1
2018-May-21 15:58N 50°38' W 001°05'0 0.1
2018-May-21 15:28N 50°38' W 001°05'0 0.2
2018-May-21 14:49N 50°38' W 001°04'0 0.0
2018-May-21 14:25N 50°38' W 001°04'0 0.0
2018-May-21 13:49N 50°38' W 001°04'0 0.0
2018-May-21 13:25N 50°38' W 001°04'0 0.0
2018-May-21 12:55N 50°38' W 001°04'0 0.0
2018-May-21 12:25N 50°38' W 001°04'0 0.0
2018-May-21 11:52N 50°38' W 001°04'0 0.0
2018-May-21 11:19N 50°38' W 001°04'0 0.0
2018-May-21 10:55N 50°38' W 001°04'0 0.0
2018-May-21 10:01N 50°38' W 001°04'0 0.3
2018-May-21 09:49N 50°38' W 001°04'0 0.4
2018-May-21 09:28N 50°38' W 001°05'0 0.0
2018-May-21 08:58N 50°38' W 001°05'0 0.0
2018-May-21 08:28N 50°38' W 001°05'0 0.0
2018-May-21 07:52N 50°38' W 001°05'0 0.0
2018-May-21 07:25N 50°38' W 001°05'0 0.1
2018-May-21 06:55N 50°38' W 001°05'0 0.0
2018-May-21 06:28N 50°38' W 001°05'0 0.1
2018-May-21 05:55N 50°38' W 001°05'0 0.0
2018-May-21 05:28N 50°38' W 001°05'0 0.1
2018-May-21 04:58N 50°38' W 001°05'0 0.0
2018-May-21 04:25N 50°38' W 001°05'0 0.0
2018-May-21 03:58N 50°38' W 001°05'0 0.0
2018-May-21 03:28N 50°38' W 001°05'0 0.0
2018-May-21 02:58N 50°38' W 001°05'0 0.3
2018-May-21 02:19N 50°38' W 001°04'0 0.0
2018-May-21 01:55N 50°38' W 001°04'0 0.0
2018-May-21 01:28N 50°38' W 001°04'0 0.0
2018-May-21 00:58N 50°38' W 001°04'0 0.0
2018-May-21 00:28N 50°38' W 001°04'0 0.0
2018-May-20 23:58N 50°38' W 001°04'0 0.0
2018-May-20 23:04N 50°38' W 001°04'0 0.1
2018-May-20 22:58N 50°38' W 001°04'0 0.1
2018-May-20 22:28N 50°38' W 001°04'0 0.0
2018-May-20 21:52N 50°38' W 001°04'0 0.0
2018-May-20 21:28N 50°38' W 001°04'0 0.2
2018-May-20 20:55N 50°38' W 001°05'0 0.2
2018-May-20 20:28N 50°38' W 001°05'0 0.1
2018-May-20 19:58N 50°38' W 001°05'0 0.0
2018-May-20 19:28N 50°38' W 001°05'0 0.0
2018-May-20 18:58N 50°38' W 001°05'0 0.0
2018-May-20 18:28N 50°38' W 001°05'0 0.0
2018-May-20 17:55N 50°38' W 001°05'0 0.0
2018-May-20 17:28N 50°38' W 001°05'0 0.0
2018-May-20 16:55N 50°38' W 001°05'0 0.0
2018-May-20 16:28N 50°38' W 001°05'0 0.0
2018-May-20 15:58N 50°38' W 001°05'0 0.0
2018-May-20 15:28N 50°38' W 001°05'0 0.0
2018-May-20 14:58N 50°38' W 001°05'0 0.1
2018-May-20 14:28N 50°38' W 001°05'0 0.2
2018-May-20 13:58N 50°38' W 001°04'0 0.1
2018-May-20 13:28N 50°38' W 001°04'0 0.0
2018-May-20 12:43N 50°38' W 001°04'0 0.0
2018-May-20 12:28N 50°38' W 001°04'0 0.0
2018-May-20 10:40N 50°38' W 001°04'0 0.0
2018-May-20 10:25N 50°38' W 001°04'0 0.0
2018-May-20 09:25N 50°38' W 001°04'0 0.0
2018-May-20 08:55N 50°38' W 001°04'0 0.2
2018-May-20 08:25N 50°38' W 001°05'0 0.2
2018-May-20 07:58N 50°38' W 001°05'0 0.1
2018-May-20 07:28N 50°38' W 001°05'0 0.0
2018-May-20 06:58N 50°38' W 001°05'0 0.0
2018-May-20 06:28N 50°38' W 001°05'0 0.0
2018-May-20 05:58N 50°38' W 001°05'0 0.0
2018-May-20 05:28N 50°38' W 001°05'0 0.0
2018-May-20 04:58N 50°38' W 001°05'0 0.0
2018-May-20 04:28N 50°38' W 001°05'0 0.0
2018-May-20 03:55N 50°38' W 001°05'0 0.0
2018-May-20 03:25N 50°38' W 001°05'0 0.0
2018-May-20 02:55N 50°38' W 001°05'0 0.1
2018-May-20 02:28N 50°38' W 001°05'0 0.1
2018-May-20 01:58N 50°38' W 001°05'0 0.3
2018-May-20 01:25N 50°38' W 001°04'0 0.1
2018-May-20 00:49N 50°38' W 001°04'0 0.0
2018-May-20 00:25N 50°38' W 001°04'0 0.0
2018-May-19 23:55N 50°38' W 001°04'0 0.0
2018-May-19 23:19N 50°38' W 001°04'0 0.1
2018-May-19 22:46N 50°38' W 001°04'0 0.1
2018-May-19 22:16N 50°38' W 001°04'0 0.0
2018-May-19 21:43N 50°38' W 001°04'0 0.0
2018-May-19 21:25N 50°38' W 001°04'0 0.0
2018-May-19 20:58N 50°38' W 001°04'0 0.0
2018-May-19 20:25N 50°38' W 001°04'0 0.0
2018-May-19 19:58N 50°38' W 001°04'0 0.3
2018-May-19 19:28N 50°38' W 001°05'0 0.1
2018-May-19 18:58N 50°38' W 001°05'0 0.0
2018-May-19 18:28N 50°38' W 001°05'0 0.0
2018-May-19 17:55N 50°38' W 001°05'0 0.0
2018-May-19 17:28N 50°38' W 001°05'0 0.0
2018-May-19 16:58N 50°38' W 001°05'0 0.0
2018-May-19 16:28N 50°38' W 001°05'0 0.0
2018-May-19 15:58N 50°38' W 001°05'0 0.0
2018-May-19 15:28N 50°38' W 001°05'0 0.0
2018-May-19 14:58N 50°38' W 001°05'0 0.0
2018-May-19 14:30N 50°38' W 001°05'0 0.1
2018-May-19 14:00N 50°38' W 001°05'0 0.3
2018-May-19 13:27N 50°38' W 001°04'0 0.2
2018-May-19 13:01N 50°38' W 001°04'0 0.0
2018-May-19 12:30N 50°38' W 001°04'0 0.0
2018-May-19 11:58N 50°38' W 001°04'0 0.0
2018-May-19 11:30N 50°38' W 001°04'0 0.0
2018-May-19 11:00N 50°38' W 001°04'0 0.0
2018-May-19 10:27N 50°38' W 001°04'0 0.0
2018-May-19 09:57N 50°38' W 001°04'0 0.1
2018-May-19 09:00N 50°38' W 001°04'0 0.1
2018-May-19 08:21N 50°38' W 001°04'0 0.0
2018-May-19 08:00N 50°38' W 001°04'0 0.2
2018-May-19 07:30N 50°38' W 001°05'0 0.2
2018-May-19 07:00N 50°38' W 001°05'0 0.0
2018-May-19 06:30N 50°38' W 001°05'0 0.0
2018-May-19 06:00N 50°38' W 001°05'0 0.0
2018-May-19 05:30N 50°38' W 001°05'0 0.0
2018-May-19 05:00N 50°38' W 001°05'0 0.0
2018-May-19 04:30N 50°38' W 001°05'0 0.2
2018-May-19 04:00N 50°38' W 001°05'0 0.0
2018-May-19 03:30N 50°38' W 001°05'0 0.0
2018-May-19 03:00N 50°38' W 001°05'0 0.0
2018-May-19 02:30N 50°38' W 001°05'0 0.0
2018-May-19 02:00N 50°38' W 001°05'0 0.1
2018-May-19 01:30N 50°38' W 001°05'0 0.3
2018-May-19 01:00N 50°38' W 001°05'0 0.2
2018-May-19 00:30N 50°38' W 001°04'0 0.0
2018-May-19 00:00N 50°38' W 001°04'0 0.0
2018-May-18 23:24N 50°38' W 001°04'0 0.0
2018-May-18 23:00N 50°38' W 001°04'0 0.0
2018-May-18 22:15N 50°38' W 001°04'0 0.0
2018-May-18 21:54N 50°38' W 001°04'0 0.0
2018-May-18 21:30N 50°38' W 001°04'0 0.0
2018-May-18 20:36N 50°38' W 001°04'0 0.1
2018-May-18 20:12N 50°38' W 001°04'0 0.0
2018-May-18 19:30N 50°38' W 001°04'0 0.1
2018-May-18 19:00N 50°38' W 001°04'0 0.3
2018-May-18 18:30N 50°38' W 001°05'0 0.0
2018-May-18 17:51N 50°38' W 001°05'0 0.0
2018-May-18 17:30N 50°38' W 001°05'0 0.0
2018-May-18 17:00N 50°38' W 001°05'0 0.0
2018-May-18 16:30N 50°38' W 001°05'0 0.0
2018-May-18 16:00N 50°38' W 001°05'0 0.0
2018-May-18 15:30N 50°38' W 001°05'0 0.0
2018-May-18 15:00N 50°38' W 001°05'0 0.0
2018-May-18 14:30N 50°38' W 001°05'0 0.0
2018-May-18 13:57N 50°38' W 001°05'0 0.0
2018-May-18 13:27N 50°38' W 001°05'0 0.2
2018-May-18 13:00N 50°38' W 001°05'0 0.2
2018-May-18 12:30N 50°38' W 001°05'0 0.2
2018-May-18 11:54N 50°38' W 001°04'0 0.0
2018-May-18 11:18N 50°38' W 001°04'0 0.0
2018-May-18 10:54N 50°38' W 001°04'0 0.0
2018-May-18 10:24N 50°38' W 001°04'0 0.0
2018-May-18 09:51N 50°38' W 001°04'0 0.0
2018-May-18 08:45N 50°38' W 001°04'0 0.1
2018-May-18 08:00N 50°38' W 001°04'0 0.1
2018-May-18 07:00N 50°38' W 001°04'0 0.3
2018-May-18 06:30N 50°38' W 001°05'0 0.1
2018-May-18 05:57N 50°38' W 001°05'0 0.0
2018-May-18 05:30N 50°38' W 001°05'0 0.0
2018-May-18 05:00N 50°38' W 001°05'0 0.0
2018-May-18 04:30N 50°38' W 001°05'0 0.0
2018-May-18 04:00N 50°38' W 001°05'0 0.0
2018-May-18 03:28N 50°38' W 001°05'0 0.0
2018-May-18 02:58N 50°38' W 001°05'0 0.0
2018-May-18 02:25N 50°38' W 001°05'0 0.0
2018-May-18 01:46N 50°38' W 001°05'0 0.0
2018-May-18 01:28N 50°38' W 001°05'0 0.0
2018-May-18 00:49N 50°38' W 001°05'0 0.1
2018-May-18 00:28N 50°38' W 001°05'0 0.2
2018-May-17 23:58N 50°38' W 001°04'0 0.1
2018-May-17 23:25N 50°38' W 001°04'0 0.0
2018-May-17 22:49N 50°38' W 001°04'0 0.0
2018-May-17 22:30N 50°38' W 001°04'0 0.0
2018-May-17 21:54N 50°38' W 001°04'0 0.0
2018-May-17 19:24N 50°38' W 001°04'0 0.0
2018-May-17 18:54N 50°38' W 001°04'0 0.1
2018-May-17 18:30N 50°38' W 001°04'0 0.2
2018-May-17 18:00N 50°38' W 001°05'0 0.1
2018-May-17 17:30N 50°38' W 001°05'0 0.0
2018-May-17 17:00N 50°38' W 001°05'0 0.0
2018-May-17 16:30N 50°38' W 001°05'0 0.0
2018-May-17 16:00N 50°38' W 001°05'0 0.0
2018-May-17 15:30N 50°38' W 001°05'0 0.0
2018-May-17 15:00N 50°38' W 001°05'0 0.0
2018-May-17 14:30N 50°38' W 001°05'0 0.0
2018-May-17 14:00N 50°38' W 001°05'0 0.0
2018-May-17 13:18N 50°38' W 001°05'0 0.0
2018-May-17 12:57N 50°38' W 001°05'0 0.2
2018-May-17 12:30N 50°38' W 001°05'0 0.1
2018-May-17 12:00N 50°38' W 001°05'0 0.2
2018-May-17 11:24N 50°38' W 001°04'0 0.1
2018-May-17 11:00N 50°38' W 001°04'0 0.0
2018-May-17 10:30N 50°38' W 001°04'0 0.0
2018-May-17 09:48N 50°38' W 001°04'0 0.1
2018-May-17 09:30N 50°38' W 001°04'0 0.2
2018-May-17 08:54N 50°38' W 001°04'0 0.1
2018-May-17 07:18N 50°38' W 001°04'0 0.0
2018-May-17 07:00N 50°38' W 001°04'0 0.4
2018-May-17 06:30N 50°38' W 001°05'0 0.3
2018-May-17 05:57N 50°38' W 001°05'0 0.0
2018-May-17 05:30N 50°38' W 001°05'0 0.0
2018-May-17 05:00N 50°38' W 001°05'0 0.0
2018-May-17 04:29N 50°38' W 001°05'0 0.0
2018-May-17 03:59N 50°38' W 001°05'0 0.0
2018-May-17 03:29N 50°38' W 001°05'0 0.0
2018-May-17 02:56N 50°38' W 001°05'0 0.1
2018-May-17 02:29N 50°38' W 001°05'0 0.0
2018-May-17 01:57N 50°38' W 001°05'0 0.0
2018-May-17 01:27N 50°38' W 001°05'0 0.0
2018-May-17 00:48N 50°38' W 001°05'0 0.0
2018-May-17 00:27N 50°38' W 001°05'0 0.0
2018-May-17 00:00N 50°38' W 001°05'0 0.0
2018-May-16 23:30N 50°38' W 001°05'0 0.2
2018-May-16 22:18N 50°38' W 001°05'0 0.0
2018-May-16 21:51N 50°38' W 001°05'0 0.0
2018-May-16 21:27N 50°38' W 001°05'0 0.0
2018-May-16 19:24N 50°38' W 001°04'0 0.1
2018-May-16 18:06N 50°38' W 001°05'0 0.5
2018-May-16 17:57N 50°38' W 001°05'0 0.1
2018-May-16 17:21N 50°38' W 001°05'0 0.0
2018-May-16 16:57N 50°38' W 001°05'0 0.0
2018-May-16 16:30N 50°38' W 001°05'0 0.0
2018-May-16 16:00N 50°38' W 001°05'0 0.0
2018-May-16 15:30N 50°38' W 001°05'0 0.0
2018-May-16 15:00N 50°38' W 001°05'0 0.0
2018-May-16 14:27N 50°38' W 001°05'0 0.0
2018-May-16 14:00N 50°38' W 001°05'0 0.0
2018-May-16 13:30N 50°38' W 001°05'0 0.1
2018-May-16 13:00N 50°38' W 001°05'0 0.0
2018-May-16 12:27N 50°38' W 001°05'0 0.0
2018-May-16 12:00N 50°38' W 001°05'0 0.0
2018-May-16 11:30N 50°38' W 001°05'0 0.1
2018-May-16 11:00N 50°38' W 001°05'0 0.1
2018-May-16 08:09N 50°38' W 001°04'0 0.0
2018-May-16 05:51N 50°38' W 001°04'0 0.4
2018-May-16 05:27N 50°38' W 001°05'0 0.3
2018-May-16 05:00N 50°38' W 001°05'0 0.1
2018-May-16 04:27N 50°38' W 001°05'0 0.0
2018-May-16 04:00N 50°38' W 001°05'0 0.0
2018-May-16 03:30N 50°38' W 001°05'0 0.0
2018-May-16 03:00N 50°38' W 001°05'0 0.0
2018-May-16 02:30N 50°38' W 001°05'0 0.0
2018-May-16 02:00N 50°38' W 001°05'0 0.0
2018-May-16 01:30N 50°38' W 001°05'0 0.0
2018-May-16 01:00N 50°38' W 001°05'0 0.0
2018-May-16 00:27N 50°38' W 001°05'0 0.1
2018-May-16 00:00N 50°38' W 001°05'0 0.1
2018-May-15 23:30N 50°38' W 001°05'0 0.0
2018-May-15 23:00N 50°38' W 001°05'0 0.3
2018-May-15 22:30N 50°38' W 001°04'0 0.1
2018-May-15 22:00N 50°38' W 001°04'0 0.1
2018-May-15 21:30N 50°38' W 001°04'0 0.0
2018-May-15 17:36N 50°38' W 001°04'0 0.3
2018-May-15 17:12N 50°38' W 001°04'0 0.6
2018-May-15 16:57N 50°38' W 001°05'0 0.1
2018-May-15 16:30N 50°38' W 001°05'0 0.0
2018-May-15 16:00N 50°38' W 001°05'  

Dump ship's entire track history